Time;durP1;ratioP1;P1;durP2;ratioP2;P2;SDS_P1;SDS_P2;PMS_P1;PMS_P2;Temp;Humidity;BMP_temperature;BMP_pressure;BME280_temperature;BME280_humidity;BME280_pressure;Samples;Min_cycle;Max_cycle;Signal;HPM_P1;HPM_P2
2022/10/24 00:00:21;;;;;;;;;;;;;;;;;;5037812;28;19978;-34
2022/10/24 00:02:46;;;;;;;;;;;;;;;;;;5032588;28;19920;-33
2022/10/24 00:05:11;;;;;;;;;;;;;;;;;;5035437;28;19912;-33
2022/10/24 00:07:36;;;;;;;;;;;;;;;;;;5029746;28;19912;-34
2022/10/24 00:10:02;;;;;;;;;;;;;;;;;;5035683;28;19971;-34
2022/10/24 00:12:27;;;;;;;;;;;;;;;;;;5034078;28;20323;-33
2022/10/24 00:14:52;;;;;;;;;;;;;;;;;;5036375;28;20406;-33
2022/10/24 00:17:17;;;;;;;;;;;;;;;;;;5033447;28;19921;-34
2022/10/24 00:19:42;;;;;;;;;;;;;;;;;;5029934;28;19917;-33
2022/10/24 00:22:08;;;;;;;;;;;;;;;;;;5032941;28;19916;-34
2022/10/24 00:24:33;;;;;;;;;;;;;;;;;;5034056;28;20572;-34
2022/10/24 00:26:58;;;;;;;;;;;;;;;;;;5035318;28;19917;-34
2022/10/24 00:29:23;;;;;;;;;;;;;;;;;;5031551;28;20497;-33
2022/10/24 00:31:48;;;;;;;;;;;;;;;;;;5037637;28;20082;-33
2022/10/24 00:34:13;;;;;;;;;;;;;;;;;;5029655;28;19927;-34
2022/10/24 00:36:39;;;;;;;;;;;;;;;;;;5033918;28;19940;-34
2022/10/24 00:39:04;;;;;;;;;;;;;;;;;;5034664;28;19917;-34
2022/10/24 00:41:29;;;;;;;;;;;;;;;;;;5026398;28;19975;-34
2022/10/24 00:43:54;;;;;;;;;;;;;;;;;;5036240;28;19919;-34
2022/10/24 00:46:19;;;;;;;;;;;;;;;;;;5034401;28;20387;-34
2022/10/24 00:48:44;;;;;;;;;;;;;;;;;;5036193;28;19912;-34
2022/10/24 00:51:10;;;;;;;;;;;;;;;;;;5030983;28;19931;-34
2022/10/24 00:53:35;;;;;;;;;;;;;;;;;;5032854;28;19940;-34
2022/10/24 00:56:00;;;;;;;;;;;;;;;;;;5039295;28;19913;-34
2022/10/24 00:58:25;;;;;;;;;;;;;;;;;;5034873;28;19960;-34
2022/10/24 01:00:50;;;;;;;;;;;;;;;;;;5030424;28;19913;-34
2022/10/24 01:03:15;;;;;;;;;;;;;;;;;;5031432;28;19917;-34
2022/10/24 01:05:40;;;;;;;;;;;;;;;;;;5030030;28;20429;-34
2022/10/24 01:08:06;;;;;;;;;;;;;;;;;;5033690;28;19913;-34
2022/10/24 01:10:31;;;;;;;;;;;;;;;;;;5032882;28;20007;-34
2022/10/24 01:12:56;;;;;;;;;;;;;;;;;;5035690;28;19943;-34
2022/10/24 01:15:21;;;;;;;;;;;;;;;;;;5032589;28;20020;-34
2022/10/24 01:17:46;;;;;;;;;;;;;;;;;;5030217;28;19927;-34
2022/10/24 01:20:11;;;;;;;;;;;;;;;;;;5033941;28;19940;-34
2022/10/24 01:22:36;;;;;;;;;;;;;;;;;;5031802;28;19971;-34
2022/10/24 01:25:02;;;;;;;;;;;;;;;;;;5037353;28;20330;-34
2022/10/24 01:27:27;;;;;;;;;;;;;;;;;;5027703;28;19971;-34
2022/10/24 01:29:53;;;;;;;;;;;;;;;;;;5030925;28;19916;-34
2022/10/24 01:32:18;;;;;;;;;;;;;;;;;;5028853;28;19913;-34
2022/10/24 01:34:43;;;;;;;;;;;;;;;;;;5030161;28;19917;-34
2022/10/24 01:37:08;;;;;;;;;;;;;;;;;;5031550;28;20382;-34
2022/10/24 01:39:33;;;;;;;;;;;;;;;;;;5028569;28;19978;-34
2022/10/24 01:41:58;;;;;;;;;;;;;;;;;;5030042;28;19913;-34
2022/10/24 01:44:23;;;;;;;;;;;;;;;;;;5028014;28;19963;-34
2022/10/24 01:46:49;;;;;;;;;;;;;;;;;;5027585;28;19924;-35
2022/10/24 01:49:14;;;;;;;;;;;;;;;;;;5031314;28;20018;-34
2022/10/24 01:51:39;;;;;;;;;;;;;;;;;;5032701;28;19928;-34
2022/10/24 01:54:04;;;;;;;;;;;;;;;;;;5030403;28;20270;-34
2022/10/24 01:56:29;;;;;;;;;;;;;;;;;;5028459;28;19924;-34
2022/10/24 01:58:54;;;;;;;;;;;;;;;;;;5032811;28;19920;-34
2022/10/24 02:01:19;;;;;;;;;;;;;;;;;;5032834;28;20029;-34
2022/10/24 02:03:45;;;;;;;;;;;;;;;;;;5030706;28;19924;-34
2022/10/24 02:06:10;;;;;;;;;;;;;;;;;;5037399;28;20362;-34
2022/10/24 02:08:35;;;;;;;;;;;;;;;;;;5028019;28;19916;-34
2022/10/24 02:11:00;;;;;;;;;;;;;;;;;;5032102;28;19951;-34
2022/10/24 02:13:26;;;;;;;;;;;;;;;;;;5028604;28;20590;-35
2022/10/24 02:15:51;;;;;;;;;;;;;;;;;;5030953;28;19923;-34
2022/10/24 02:18:16;;;;;;;;;;;;;;;;;;5038393;28;19909;-34
2022/10/24 02:20:41;;;;;;;;;;;;;;;;;;5034623;28;20009;-34
2022/10/24 02:23:06;;;;;;;;;;;;;;;;;;5030339;28;19913;-34
2022/10/24 02:25:32;;;;;;;;;;;;;;;;;;5031133;28;19917;-34
2022/10/24 02:27:57;;;;;;;;;;;;;;;;;;5036505;28;20298;-34
2022/10/24 02:30:22;;;;;;;;;;;;;;;;;;5031833;28;21389;-34
2022/10/24 02:32:47;;;;;;;;;;;;;;;;;;5038902;28;19917;-33
2022/10/24 02:35:12;;;;;;;;;;;;;;;;;;5036542;28;19917;-34
2022/10/24 02:37:37;;;;;;;;;;;;;;;;;;5036071;28;19952;-34
2022/10/24 02:40:02;;;;;;;;;;;;;;;;;;5034426;28;19924;-34
2022/10/24 02:42:28;;;;;;;;;;;;;;;;;;5029758;28;20298;-34
2022/10/24 02:44:53;;;;;;;;;;;;;;;;;;5033562;28;20047;-34
2022/10/24 02:47:18;;;;;;;;;;;;;;;;;;5031249;28;19920;-35
2022/10/24 02:49:43;;;;;;;;;;;;;;;;;;5036342;28;20331;-34
2022/10/24 02:52:09;;;;;;;;;;;;;;;;;;5031372;28;19963;-34
2022/10/24 02:54:34;;;;;;;;;;;;;;;;;;5031656;28;19921;-34
2022/10/24 02:56:59;;;;;;;;;;;;;;;;;;5030906;28;20004;-34
2022/10/24 02:59:24;;;;;;;;;;;;;;;;;;5029394;28;19925;-34
2022/10/24 03:01:49;;;;;;;;;;;;;;;;;;5032279;28;19920;-34
2022/10/24 03:04:14;;;;;;;;;;;;;;;;;;5038562;28;20366;-34
2022/10/24 03:06:39;;;;;;;;;;;;;;;;;;5035254;28;19917;-34
2022/10/24 03:09:04;;;;;;;;;;;;;;;;;;5035012;28;19964;-34
2022/10/24 03:11:30;;;;;;;;;;;;;;;;;;5030950;28;20325;-34
2022/10/24 03:13:55;;;;;;;;;;;;;;;;;;5037933;28;19943;-34
2022/10/24 03:16:20;;;;;;;;;;;;;;;;;;5034975;28;19913;-34
2022/10/24 03:18:45;;;;;;;;;;;;;;;;;;5031736;28;19943;-34
2022/10/24 03:21:10;;;;;;;;;;;;;;;;;;5032867;28;19914;-34
2022/10/24 03:23:35;;;;;;;;;;;;;;;;;;5035514;28;19917;-34
2022/10/24 03:26:00;;;;;;;;;;;;;;;;;;5038428;28;19920;-34
2022/10/24 03:28:26;;;;;;;;;;;;;;;;;;5030447;28;20522;-33
2022/10/24 03:30:52;;;;;;;;;;;;;;;;;;5032743;28;19959;-34
2022/10/24 03:33:17;;;;;;;;;;;;;;;;;;5038074;28;19939;-34
2022/10/24 03:35:42;;;;;;;;;;;;;;;;;;5030308;28;19921;-34
2022/10/24 03:38:07;;;;;;;;;;;;;;;;;;5031261;28;19917;-34
2022/10/24 03:40:32;;;;;;;;;;;;;;;;;;5037360;28;20304;-34
2022/10/24 03:42:58;;;;;;;;;;;;;;;;;;5033138;28;20318;-34
2022/10/24 03:45:23;;;;;;;;;;;;;;;;;;5030051;28;19921;-34
2022/10/24 03:47:48;;;;;;;;;;;;;;;;;;5034694;28;19920;-34
2022/10/24 03:50:13;;;;;;;;;;;;;;;;;;5029264;28;19913;-34
2022/10/24 03:52:38;;;;;;;;;;;;;;;;;;5031215;28;19921;-34
2022/10/24 03:55:03;;;;;;;;;;;;;;;;;;5035979;28;20345;-34
2022/10/24 03:57:28;;;;;;;;;;;;;;;;;;5033546;28;19955;-33
2022/10/24 03:59:54;;;;;;;;;;;;;;;;;;5029736;28;20363;-34
2022/10/24 04:02:19;;;;;;;;;;;;;;;;;;5029573;28;19956;-34
2022/10/24 04:04:44;;;;;;;;;;;;;;;;;;5034887;28;19924;-34
2022/10/24 04:07:09;;;;;;;;;;;;;;;;;;5032285;28;19913;-34
2022/10/24 04:09:34;;;;;;;;;;;;;;;;;;5029280;28;19950;-34
2022/10/24 04:11:59;;;;;;;;;;;;;;;;;;5033020;28;19932;-34
2022/10/24 04:14:25;;;;;;;;;;;;;;;;;;5037455;28;19921;-34
2022/10/24 04:16:50;;;;;;;;;;;;;;;;;;5036650;28;20480;-34
2022/10/24 04:19:18;;;;;;;;;;;;;;;;;;5028708;28;19917;-34
2022/10/24 04:21:44;;;;;;;;;;;;;;;;;;5036060;28;20425;-34
2022/10/24 04:24:09;;;;;;;;;;;;;;;;;;5032696;28;19917;-34
2022/10/24 04:26:34;;;;;;;;;;;;;;;;;;5029802;28;19950;-34
2022/10/24 04:28:59;;;;;;;;;;;;;;;;;;5032760;28;19921;-34
2022/10/24 04:31:24;;;;;;;;;;;;;;;;;;5034244;28;19932;-34
2022/10/24 04:33:49;;;;;;;;;;;;;;;;;;5032825;28;20271;-34
2022/10/24 04:36:15;;;;;;;;;;;;;;;;;;5032932;28;19920;-34
2022/10/24 04:38:40;;;;;;;;;;;;;;;;;;5028294;28;20398;-34
2022/10/24 04:41:05;;;;;;;;;;;;;;;;;;5032758;28;19913;-35
2022/10/24 04:43:30;;;;;;;;;;;;;;;;;;5028038;28;20311;-34
2022/10/24 04:45:55;;;;;;;;;;;;;;;;;;5032499;28;20049;-34
2022/10/24 04:48:20;;;;;;;;;;;;;;;;;;5030495;28;20397;-34
2022/10/24 04:50:45;;;;;;;;;;;;;;;;;;5030066;28;19917;-34
2022/10/24 04:53:11;;;;;;;;;;;;;;;;;;5035090;28;19923;-34
2022/10/24 04:55:36;;;;;;;;;;;;;;;;;;5034010;28;20202;-34
2022/10/24 04:58:01;;;;;;;;;;;;;;;;;;5036392;28;20398;-34
2022/10/24 05:00:26;;;;;;;;;;;;;;;;;;5028053;28;20137;-34
2022/10/24 05:02:51;;;;;;;;;;;;;;;;;;5031204;28;20032;-34
2022/10/24 05:05:16;;;;;;;;;;;;;;;;;;5033941;28;19913;-34
2022/10/24 05:07:42;;;;;;;;;;;;;;;;;;5030311;28;19921;-34
2022/10/24 05:10:07;;;;;;;;;;;;;;;;;;5036205;28;19913;-34
2022/10/24 05:12:32;;;;;;;;;;;;;;;;;;5028534;28;20477;-34
2022/10/24 05:14:57;;;;;;;;;;;;;;;;;;5028816;28;19913;-34
2022/10/24 05:17:22;;;;;;;;;;;;;;;;;;5027812;28;20482;-34
2022/10/24 05:19:47;;;;;;;;;;;;;;;;;;5028233;28;20431;-34
2022/10/24 05:22:12;;;;;;;;;;;;;;;;;;5028839;28;20603;-33
2022/10/24 05:24:38;;;;;;;;;;;;;;;;;;5037835;28;19920;-34
2022/10/24 05:27:03;;;;;;;;;;;;;;;;;;5036637;28;19923;-34
2022/10/24 05:29:28;;;;;;;;;;;;;;;;;;5032003;28;20353;-34
2022/10/24 05:31:53;;;;;;;;;;;;;;;;;;5027872;28;19924;-34
2022/10/24 05:34:18;;;;;;;;;;;;;;;;;;5032235;28;20263;-33
2022/10/24 05:36:43;;;;;;;;;;;;;;;;;;5030302;28;19917;-34
2022/10/24 05:39:08;;;;;;;;;;;;;;;;;;5026508;28;19913;-34
2022/10/24 05:41:34;;;;;;;;;;;;;;;;;;5026144;28;19913;-33
2022/10/24 05:43:59;;;;;;;;;;;;;;;;;;5036909;28;19913;-34
2022/10/24 05:46:24;;;;;;;;;;;;;;;;;;5032963;28;19958;-34
2022/10/24 05:48:49;;;;;;;;;;;;;;;;;;5027664;28;20295;-34
2022/10/24 05:51:14;;;;;;;;;;;;;;;;;;5028099;28;20056;-34
2022/10/24 05:53:39;;;;;;;;;;;;;;;;;;5032174;28;19917;-34
2022/10/24 05:58:37;;;;;;;;;;;;;;;;;;5029214;28;19939;-37
2022/10/24 06:01:02;;;;;;;;;;;;;;;;;;5031242;28;19913;-37
2022/10/24 06:03:27;;;;;;;;;;;;;;;;;;5030228;28;20290;-37
2022/10/24 06:05:52;;;;;;;;;;;;;;;;;;5028367;28;19913;-37
2022/10/24 06:08:18;;;;;;;;;;;;;;;;;;5029513;28;19913;-37
2022/10/24 06:10:43;;;;;;;;;;;;;;;;;;5037432;28;20388;-38
2022/10/24 06:13:08;;;;;;;;;;;;;;;;;;5030246;28;19924;-37
2022/10/24 06:15:33;;;;;;;;;;;;;;;;;;5027477;28;19913;-37
2022/10/24 06:17:58;;;;;;;;;;;;;;;;;;5030124;28;20129;-37
2022/10/24 06:20:23;;;;;;;;;;;;;;;;;;5028808;28;21241;-37
2022/10/24 06:22:48;;;;;;;;;;;;;;;;;;5026556;28;20337;-38
2022/10/24 06:25:14;;;;;;;;;;;;;;;;;;5024036;28;19952;-37
2022/10/24 06:27:39;;;;;;;;;;;;;;;;;;5031065;28;20500;-37
2022/10/24 06:30:04;;;;;;;;;;;;;;;;;;5029811;28;19921;-38
2022/10/24 06:32:29;;;;;;;;;;;;;;;;;;5030928;28;20332;-37
2022/10/24 06:34:54;;;;;;;;;;;;;;;;;;5032644;28;19924;-37
2022/10/24 06:37:20;;;;;;;;;;;;;;;;;;5030591;28;19944;-38
2022/10/24 06:39:45;;;;;;;;;;;;;;;;;;5029773;28;19913;-37
2022/10/24 06:42:10;;;;;;;;;;;;;;;;;;5038260;28;19913;-38
2022/10/24 06:44:35;;;;;;;;;;;;;;;;;;5032180;28;19913;-37
2022/10/24 06:47:00;;;;;;;;;;;;;;;;;;5030466;28;20386;-37
2022/10/24 06:49:25;;;;;;;;;;;;;;;;;;5032500;28;20394;-38
2022/10/24 06:51:51;;;;;;;;;;;;;;;;;;5030407;28;19921;-37
2022/10/24 06:54:16;;;;;;;;;;;;;;;;;;5028158;28;19960;-38
2022/10/24 06:56:41;;;;;;;;;;;;;;;;;;5027822;28;19914;-37
2022/10/24 06:59:08;;;;;;;;;;;;;;;;;;5031771;28;21356;-37
2022/10/24 07:01:34;;;;;;;;;;;;;;;;;;5030168;28;19913;-37
2022/10/24 07:03:59;;;;;;;;;;;;;;;;;;5029538;28;19913;-37
2022/10/24 07:06:24;;;;;;;;;;;;;;;;;;5038229;28;19921;-38
2022/10/24 07:08:49;;;;;;;;;;;;;;;;;;5032610;28;20326;-37
2022/10/24 07:11:15;;;;;;;;;;;;;;;;;;5029698;28;20009;-37
2022/10/24 07:13:40;;;;;;;;;;;;;;;;;;5038569;28;20279;-37
2022/10/24 07:16:05;;;;;;;;;;;;;;;;;;5033480;28;19921;-37
2022/10/24 07:18:30;;;;;;;;;;;;;;;;;;5034063;28;19917;-37
2022/10/24 07:20:55;;;;;;;;;;;;;;;;;;5026472;28;19959;-37
2022/10/24 07:23:20;;;;;;;;;;;;;;;;;;5033396;28;20290;-37
2022/10/24 07:25:46;;;;;;;;;;;;;;;;;;5034045;28;19919;-38
2022/10/24 07:28:11;;;;;;;;;;;;;;;;;;5031920;28;19963;-38
2022/10/24 07:30:36;;;;;;;;;;;;;;;;;;5028746;28;19928;-37
2022/10/24 07:33:01;;;;;;;;;;;;;;;;;;5032352;28;19928;-37
2022/10/24 07:35:26;;;;;;;;;;;;;;;;;;5029697;28;20004;-37
2022/10/24 07:37:52;;;;;;;;;;;;;;;;;;5032729;28;19917;-38
2022/10/24 07:40:17;;;;;;;;;;;;;;;;;;5031339;28;19914;-37
2022/10/24 07:42:42;;;;;;;;;;;;;;;;;;5033113;28;20155;-38
2022/10/24 07:45:07;;;;;;;;;;;;;;;;;;5032072;28;19917;-37
2022/10/24 07:47:33;;;;;;;;;;;;;;;;;;5026909;28;19921;-37
2022/10/24 07:49:58;;;;;;;;;;;;;;;;;;5031361;28;19913;-37
2022/10/24 07:52:23;;;;;;;;;;;;;;;;;;5034875;28;19917;-37
2022/10/24 07:54:48;;;;;;;;;;;;;;;;;;5033164;28;20011;-38
2022/10/24 07:57:13;;;;;;;;;;;;;;;;;;5030171;28;19916;-37
2022/10/24 07:59:38;;;;;;;;;;;;;;;;;;5033579;28;20362;-37
2022/10/24 08:02:04;;;;;;;;;;;;;;;;;;5033656;28;19918;-38
2022/10/24 08:04:29;;;;;;;;;;;;;;;;;;5029820;28;19948;-37
2022/10/24 08:06:54;;;;;;;;;;;;;;;;;;5033128;28;19944;-37
2022/10/24 08:09:20;;;;;;;;;;;;;;;;;;5029794;28;19913;-37
2022/10/24 08:11:45;;;;;;;;;;;;;;;;;;5031656;28;19916;-38
2022/10/24 08:14:10;;;;;;;;;;;;;;;;;;5029193;28;20003;-37
2022/10/24 08:16:37;;;;;;;;;;;;;;;;;;5033137;28;19916;-37
2022/10/24 08:19:02;;;;;;;;;;;;;;;;;;5025784;28;19967;-37
2022/10/24 08:21:28;;;;;;;;;;;;;;;;;;5032762;28;19916;-37
2022/10/24 08:23:54;;;;;;;;;;;;;;;;;;5034125;28;20401;-38
2022/10/24 08:26:20;;;;;;;;;;;;;;;;;;5029599;28;20074;-38
2022/10/24 08:28:46;;;;;;;;;;;;;;;;;;5023813;28;19917;-37
2022/10/24 08:31:11;;;;;;;;;;;;;;;;;;5033536;28;19924;-37
2022/10/24 08:33:36;;;;;;;;;;;;;;;;;;5025617;28;20363;-37
2022/10/24 08:36:01;;;;;;;;;;;;;;;;;;5027525;28;19943;-37
2022/10/24 08:38:26;;;;;;;;;;;;;;;;;;5028268;28;19921;-37
2022/10/24 08:40:51;;;;;;;;;;;;;;;;;;5028500;28;20229;-36
2022/10/24 08:43:16;;;;;;;;;;;;;;;;;;5028027;28;20000;-37
2022/10/24 08:45:42;;;;;;;;;;;;;;;;;;5029218;28;19915;-37
2022/10/24 08:48:07;;;;;;;;;;;;;;;;;;5033614;28;19913;-37
2022/10/24 08:50:32;;;;;;;;;;;;;;;;;;5036488;28;19917;-37
2022/10/24 08:52:58;;;;;;;;;;;;;;;;;;5035708;28;19913;-37
2022/10/24 08:55:23;;;;;;;;;;;;;;;;;;5029001;28;19924;-38
2022/10/24 08:57:48;;;;;;;;;;;;;;;;;;5031505;28;20040;-37
2022/10/24 09:00:13;;;;;;;;;;;;;;;;;;5038860;28;19928;-38
2022/10/24 09:02:38;;;;;;;;;;;;;;;;;;5034485;28;19940;-38
2022/10/24 09:05:03;;;;;;;;;;;;;;;;;;5031866;28;19923;-37
2022/10/24 09:07:28;;;;;;;;;;;;;;;;;;5029048;28;19959;-37
2022/10/24 09:09:54;;;;;;;;;;;;;;;;;;5024762;28;19914;-37
2022/10/24 09:12:19;;;;;;;;;;;;;;;;;;5031508;28;19921;-38
2022/10/24 09:14:44;;;;;;;;;;;;;;;;;;5025591;28;19917;-38
2022/10/24 09:17:09;;;;;;;;;;;;;;;;;;5030343;28;20271;-38
2022/10/24 09:19:34;;;;;;;;;;;;;;;;;;5032133;28;20371;-37
2022/10/24 09:22:00;;;;;;;;;;;;;;;;;;5027367;28;20426;-37
2022/10/24 09:24:25;;;;;;;;;;;;;;;;;;5023705;28;19917;-37
2022/10/24 09:26:50;;;;;;;;;;;;;;;;;;5034921;28;20027;-38
2022/10/24 09:29:15;;;;;;;;;;;;;;;;;;5032076;28;19971;-37
2022/10/24 09:31:40;;;;;;;;;;;;;;;;;;5035742;28;19968;-37
2022/10/24 09:34:05;;;;;;;;;;;;;;;;;;5031216;28;19917;-38
2022/10/24 09:36:31;;;;;;;;;;;;;;;;;;5036485;28;20366;-38
2022/10/24 09:38:56;;;;;;;;;;;;;;;;;;5028065;28;19917;-38
2022/10/24 09:41:21;;;;;;;;;;;;;;;;;;5037758;28;20008;-38
2022/10/24 09:43:46;;;;;;;;;;;;;;;;;;5035456;28;19920;-37
2022/10/24 09:46:11;;;;;;;;;;;;;;;;;;5032947;28;20364;-37
2022/10/24 09:48:36;;;;;;;;;;;;;;;;;;5037310;28;19921;-38
2022/10/24 09:51:02;;;;;;;;;;;;;;;;;;5032576;28;19931;-37
2022/10/24 09:53:27;;;;;;;;;;;;;;;;;;5035158;28;20010;-37
2022/10/24 09:55:52;;;;;;;;;;;;;;;;;;5034409;28;19999;-37
2022/10/24 09:58:17;;;;;;;;;;;;;;;;;;5031362;28;19924;-37
2022/10/24 10:00:42;;;;;;;;;;;;;;;;;;5034898;28;19913;-38
2022/10/24 10:03:07;;;;;;;;;;;;;;;;;;5034653;28;20314;-38
2022/10/24 10:05:33;;;;;;;;;;;;;;;;;;5035301;28;19921;-37
2022/10/24 10:07:59;;;;;;;;;;;;;;;;;;5028390;28;19913;-38
2022/10/24 10:10:24;;;;;;;;;;;;;;;;;;5032620;28;19920;-37
2022/10/24 10:12:50;;;;;;;;;;;;;;;;;;5035594;28;20103;-38
2022/10/24 10:15:15;;;;;;;;;;;;;;;;;;5028464;28;20409;-38
2022/10/24 10:17:40;;;;;;;;;;;;;;;;;;5030838;28;19944;-38
2022/10/24 10:20:05;;;;;;;;;;;;;;;;;;5031546;28;19927;-37
2022/10/24 10:22:30;;;;;;;;;;;;;;;;;;5034196;28;20274;-38
2022/10/24 10:24:55;;;;;;;;;;;;;;;;;;5031249;28;19967;-38
2022/10/24 10:27:20;;;;;;;;;;;;;;;;;;5031571;28;19921;-38
2022/10/24 10:29:46;;;;;;;;;;;;;;;;;;5031788;28;19913;-38
2022/10/24 10:32:11;;;;;;;;;;;;;;;;;;5031812;28;20008;-38
2022/10/24 10:34:36;;;;;;;;;;;;;;;;;;5027440;28;19913;-38
2022/10/24 10:37:01;;;;;;;;;;;;;;;;;;5035127;28;19925;-38
2022/10/24 10:39:26;;;;;;;;;;;;;;;;;;5032286;28;19982;-38
2022/10/24 10:41:51;;;;;;;;;;;;;;;;;;5030912;28;19924;-38
2022/10/24 10:44:17;;;;;;;;;;;;;;;;;;5031957;28;19984;-38
2022/10/24 10:46:42;;;;;;;;;;;;;;;;;;5033998;28;19924;-39
2022/10/24 10:49:07;;;;;;;;;;;;;;;;;;5030571;28;20432;-38
2022/10/24 10:51:32;;;;;;;;;;;;;;;;;;5029690;28;19948;-38
2022/10/24 10:53:57;;;;;;;;;;;;;;;;;;5036659;28;19914;-38
2022/10/24 10:56:22;;;;;;;;;;;;;;;;;;5032166;28;19913;-38
2022/10/24 10:58:47;;;;;;;;;;;;;;;;;;5034297;28;20394;-38
2022/10/24 11:01:13;;;;;;;;;;;;;;;;;;5034779;28;19924;-38
2022/10/24 11:03:38;;;;;;;;;;;;;;;;;;5037491;28;19951;-38
2022/10/24 11:06:03;;;;;;;;;;;;;;;;;;5034729;28;19919;-38
2022/10/24 11:08:28;;;;;;;;;;;;;;;;;;5033219;28;20315;-38
2022/10/24 11:10:53;;;;;;;;;;;;;;;;;;5030478;28;19917;-38
2022/10/24 11:13:19;;;;;;;;;;;;;;;;;;5032666;28;19916;-38
2022/10/24 11:15:44;;;;;;;;;;;;;;;;;;5030437;28;19913;-38
2022/10/24 11:18:09;;;;;;;;;;;;;;;;;;5025961;28;19940;-38
2022/10/24 11:20:34;;;;;;;;;;;;;;;;;;5033060;28;20401;-38
2022/10/24 11:22:59;;;;;;;;;;;;;;;;;;5030599;28;19959;-38
2022/10/24 11:25:25;;;;;;;;;;;;;;;;;;5030760;28;19967;-39
2022/10/24 11:27:50;;;;;;;;;;;;;;;;;;5031649;28;19928;-38
2022/10/24 11:30:15;;;;;;;;;;;;;;;;;;5033407;28;20185;-38
2022/10/24 11:32:40;;;;;;;;;;;;;;;;;;5034766;28;19917;-38
2022/10/24 11:35:05;;;;;;;;;;;;;;;;;;5035195;28;19919;-38
2022/10/24 11:37:31;;;;;;;;;;;;;;;;;;5034313;28;19912;-38
2022/10/24 11:39:56;;;;;;;;;;;;;;;;;;5037352;28;19912;-38
2022/10/24 11:42:21;;;;;;;;;;;;;;;;;;5035177;28;19913;-38
2022/10/24 11:44:46;;;;;;;;;;;;;;;;;;5030875;28;20267;-37
2022/10/24 11:47:11;;;;;;;;;;;;;;;;;;5032240;28;19924;-38
2022/10/24 11:49:36;;;;;;;;;;;;;;;;;;5028812;28;20310;-38
2022/10/24 11:52:01;;;;;;;;;;;;;;;;;;5029869;28;19925;-38
2022/10/24 11:54:27;;;;;;;;;;;;;;;;;;5026863;28;19917;-38
2022/10/24 11:56:52;;;;;;;;;;;;;;;;;;5047329;23;19916;-36
2022/10/24 11:59:18;;;;;;;;;;;;;;;;;;5026700;28;19940;-35
2022/10/24 12:01:46;;;;;;;;;;;;;;;;;;5026800;28;19994;-35
2022/10/24 12:04:11;;;;;;;;;;;;;;;;;;5026818;28;20397;-35
2022/10/24 12:06:36;;;;;;;;;;;;;;;;;;5026456;28;19999;-35
2022/10/24 12:09:04;;;;;;;;;;;;;;;;;;5022841;28;19933;-35
2022/10/24 12:11:29;;;;;;;;;;;;;;;;;;5026955;28;20294;-35
2022/10/24 12:13:54;;;;;;;;;;;;;;;;;;5023644;28;19917;-35
2022/10/24 12:16:19;;;;;;;;;;;;;;;;;;5026710;28;19913;-35
2022/10/24 12:18:44;;;;;;;;;;;;;;;;;;5025441;28;19996;-35
2022/10/24 12:21:10;;;;;;;;;;;;;;;;;;5026345;28;19917;-35
2022/10/24 12:23:35;;;;;;;;;;;;;;;;;;5026558;28;19913;-35
2022/10/24 12:26:00;;;;;;;;;;;;;;;;;;5025949;28;19917;-35
2022/10/24 12:28:25;;;;;;;;;;;;;;;;;;5026687;28;19956;-35
2022/10/24 12:30:50;;;;;;;;;;;;;;;;;;5025618;28;19928;-35
2022/10/24 12:33:16;;;;;;;;;;;;;;;;;;5026024;28;19943;-35
2022/10/24 12:35:44;;;;;;;;;;;;;;;;;;5026582;28;19919;-35
2022/10/24 12:38:09;;;;;;;;;;;;;;;;;;5026160;28;19928;-35
2022/10/24 12:40:35;;;;;;;;;;;;;;;;;;5026185;28;19913;-35
2022/10/24 12:43:00;;;;;;;;;;;;;;;;;;5025658;28;20188;-35
2022/10/24 12:45:25;;;;;;;;;;;;;;;;;;5025986;28;20383;-35
2022/10/24 12:47:50;;;;;;;;;;;;;;;;;;5025445;28;19967;-35
2022/10/24 12:50:16;;;;;;;;;;;;;;;;;;5026114;28;19920;-35
2022/10/24 12:52:41;;;;;;;;;;;;;;;;;;5025866;28;19983;-35
2022/10/24 12:55:06;;;;;;;;;;;;;;;;;;5025223;28;20401;-35
2022/10/24 12:57:31;;;;;;;;;;;;;;;;;;5025905;28;19924;-35
2022/10/24 12:59:56;;;;;;;;;;;;;;;;;;5024944;28;20004;-35
2022/10/24 13:02:21;;;;;;;;;;;;;;;;;;5026198;28;19935;-35
2022/10/24 13:04:47;;;;;;;;;;;;;;;;;;5025256;28;19917;-35
2022/10/24 13:07:12;;;;;;;;;;;;;;;;;;5026166;28;19914;-35
2022/10/24 13:09:37;;;;;;;;;;;;;;;;;;5025481;28;20011;-36
2022/10/24 13:12:02;;;;;;;;;;;;;;;;;;5025466;28;19933;-35
2022/10/24 13:14:27;;;;;;;;;;;;;;;;;;5025752;28;19917;-35
2022/10/24 13:16:52;;;;;;;;;;;;;;;;;;5025122;28;19921;-35
2022/10/24 13:19:17;;;;;;;;;;;;;;;;;;5024733;28;19914;-35
2022/10/24 13:21:43;;;;;;;;;;;;;;;;;;5025219;28;20306;-35
2022/10/24 13:24:08;;;;;;;;;;;;;;;;;;5025595;28;19913;-35
2022/10/24 13:26:33;;;;;;;;;;;;;;;;;;5026237;28;19972;-36
2022/10/24 13:28:58;;;;;;;;;;;;;;;;;;5025366;28;19913;-35
2022/10/24 13:31:23;;;;;;;;;;;;;;;;;;5025569;28;19932;-35
2022/10/24 13:33:49;;;;;;;;;;;;;;;;;;5025045;28;20643;-35
2022/10/24 13:36:15;;;;;;;;;;;;;;;;;;5025564;28;19920;-35
2022/10/24 13:38:40;;;;;;;;;;;;;;;;;;5025014;28;20467;-35
2022/10/24 13:41:05;;;;;;;;;;;;;;;;;;5024926;28;20004;-35
2022/10/24 13:43:31;;;;;;;;;;;;;;;;;;5025965;28;19950;-35
2022/10/24 13:45:56;;;;;;;;;;;;;;;;;;5025338;28;19917;-35
2022/10/24 13:48:21;;;;;;;;;;;;;;;;;;5025094;28;20000;-35
2022/10/24 13:50:48;;;;;;;;;;;;;;;;;;5024773;28;20016;-35
2022/10/24 13:53:13;;;;;;;;;;;;;;;;;;5024675;28;19917;-35
2022/10/24 13:55:38;;;;;;;;;;;;;;;;;;5025444;28;20183;-35
2022/10/24 13:58:03;;;;;;;;;;;;;;;;;;5025004;28;20442;-35
2022/10/24 14:00:29;;;;;;;;;;;;;;;;;;5025154;28;19988;-35
2022/10/24 14:02:54;;;;;;;;;;;;;;;;;;5024753;28;20345;-35
2022/10/24 14:05:19;;;;;;;;;;;;;;;;;;5024759;28;19913;-35
2022/10/24 14:07:44;;;;;;;;;;;;;;;;;;5025165;28;19913;-35
2022/10/24 14:10:10;;;;;;;;;;;;;;;;;;5025011;28;20359;-35
2022/10/24 14:12:35;;;;;;;;;;;;;;;;;;5028291;28;20160;-36
2022/10/24 14:15:01;;;;;;;;;;;;;;;;;;5028323;28;19921;-35
2022/10/24 14:17:28;;;;;;;;;;;;;;;;;;5028650;28;19921;-35
2022/10/24 14:19:53;;;;;;;;;;;;;;;;;;5027404;28;20353;-35
2022/10/24 14:22:18;;;;;;;;;;;;;;;;;;5028815;28;20259;-35
2022/10/24 14:24:44;;;;;;;;;;;;;;;;;;5028200;28;19947;-36
2022/10/24 14:27:09;;;;;;;;;;;;;;;;;;5028197;28;20287;-35
2022/10/24 14:29:34;;;;;;;;;;;;;;;;;;5028673;28;20291;-36
2022/10/24 14:31:59;;;;;;;;;;;;;;;;;;5027721;28;19973;-35
2022/10/24 14:34:24;;;;;;;;;;;;;;;;;;5023521;28;19971;-35
2022/10/24 14:36:49;;;;;;;;;;;;;;;;;;5024570;28;19913;-35
2022/10/24 14:39:14;;;;;;;;;;;;;;;;;;5022244;28;19910;-36
2022/10/24 14:41:40;;;;;;;;;;;;;;;;;;5021971;28;19998;-35
2022/10/24 14:44:05;;;;;;;;;;;;;;;;;;5022838;28;19971;-35
2022/10/24 14:46:30;;;;;;;;;;;;;;;;;;5026126;28;20425;-36
2022/10/24 14:48:55;;;;;;;;;;;;;;;;;;5025169;28;19924;-35
2022/10/24 14:51:20;;;;;;;;;;;;;;;;;;5021675;28;20008;-35
2022/10/24 14:53:47;;;;;;;;;;;;;;;;;;5020671;28;19999;-35
2022/10/24 14:56:12;;;;;;;;;;;;;;;;;;5025599;28;19914;-35
2022/10/24 14:58:37;;;;;;;;;;;;;;;;;;5027008;28;20047;-36
2022/10/24 15:01:03;;;;;;;;;;;;;;;;;;5021532;28;19921;-35
2022/10/24 15:03:28;;;;;;;;;;;;;;;;;;5022681;28;19913;-35
2022/10/24 15:05:53;;;;;;;;;;;;;;;;;;5025932;28;19921;-35
2022/10/24 15:08:18;;;;;;;;;;;;;;;;;;5024971;28;19943;-35
2022/10/24 15:10:44;;;;;;;;;;;;;;;;;;5020285;28;19914;-35
2022/10/24 15:13:09;;;;;;;;;;;;;;;;;;5019222;28;19917;-35
2022/10/24 15:15:34;;;;;;;;;;;;;;;;;;5023014;28;20118;-36
2022/10/24 15:17:59;;;;;;;;;;;;;;;;;;5027301;28;19913;-35
2022/10/24 15:20:28;;;;;;;;;;;;;;;;;;5020835;28;19916;-35
2022/10/24 15:22:54;;;;;;;;;;;;;;;;;;5022949;28;21598;-35
2022/10/24 15:25:19;;;;;;;;;;;;;;;;;;5025303;28;19913;-35
2022/10/24 15:27:45;;;;;;;;;;;;;;;;;;5022654;28;19913;-35
2022/10/24 15:30:10;;;;;;;;;;;;;;;;;;5025772;28;20020;-35
2022/10/24 15:32:35;;;;;;;;;;;;;;;;;;5027509;28;20272;-36
2022/10/24 15:35:00;;;;;;;;;;;;;;;;;;5024423;28;19921;-36
2022/10/24 15:37:27;;;;;;;;;;;;;;;;;;5026837;28;20318;-35
2022/10/24 15:39:53;;;;;;;;;;;;;;;;;;5022120;28;19913;-35
2022/10/24 15:42:18;;;;;;;;;;;;;;;;;;5024623;28;19923;-35
2022/10/24 15:44:43;;;;;;;;;;;;;;;;;;5018173;28;20360;-36
2022/10/24 15:47:08;;;;;;;;;;;;;;;;;;5023662;28;19921;-35
2022/10/24 15:49:33;;;;;;;;;;;;;;;;;;5025008;28;20370;-35
2022/10/24 15:51:58;;;;;;;;;;;;;;;;;;5023367;28;19921;-35
2022/10/24 15:54:25;;;;;;;;;;;;;;;;;;5019504;28;19920;-35
2022/10/24 15:56:51;;;;;;;;;;;;;;;;;;5021086;28;19984;-36
2022/10/24 15:59:17;;;;;;;;;;;;;;;;;;5025224;28;19956;-35
2022/10/24 16:01:43;;;;;;;;;;;;;;;;;;5020986;28;20378;-36
2022/10/24 16:04:08;;;;;;;;;;;;;;;;;;5020950;28;19943;-36
2022/10/24 16:06:33;;;;;;;;;;;;;;;;;;5019294;28;19960;-35
2022/10/24 16:08:58;;;;;;;;;;;;;;;;;;5020942;28;19913;-35
2022/10/24 16:11:24;;;;;;;;;;;;;;;;;;5023054;28;19925;-35
2022/10/24 16:13:49;;;;;;;;;;;;;;;;;;5024131;28;19909;-36
2022/10/24 16:16:14;;;;;;;;;;;;;;;;;;5019010;28;20050;-35
2022/10/24 16:18:39;;;;;;;;;;;;;;;;;;5019262;28;19928;-35
2022/10/24 16:21:04;;;;;;;;;;;;;;;;;;5022526;28;19921;-35
2022/10/24 16:23:29;;;;;;;;;;;;;;;;;;5023139;28;20599;-35
2022/10/24 16:25:55;;;;;;;;;;;;;;;;;;5023585;28;19920;-35
2022/10/24 16:28:21;;;;;;;;;;;;;;;;;;5022118;28;19921;-35
2022/10/24 16:30:47;;;;;;;;;;;;;;;;;;5017863;28;19917;-36
2022/10/24 16:33:12;;;;;;;;;;;;;;;;;;5019746;28;20302;-36